Time;durP1;ratioP1;P1;durP2;ratioP2;P2;SDS_P1;SDS_P2;PMS_P1;PMS_P2;Temp;Humidity;BMP_temperature;BMP_pressure;BME280_temperature;BME280_humidity;BME280_pressure;Samples;Min_cycle;Max_cycle;Signal;HPM_P1;HPM_P2
2023/04/22 00:01:01;;;;;;;8.73;5.63;;;;;;;19.61;48.59;100024.56;5072426;28;20560;-73
2023/04/22 00:03:31;;;;;;;8.57;4.90;;;;;;;19.58;48.94;100027.56;5072355;28;20079;-73
2023/04/22 00:06:00;;;;;;;9.20;4.97;;;;;;;19.55;48.95;100022.44;5072538;28;20052;-73
2023/04/22 00:08:28;;;;;;;8.82;5.20;;;;;;;19.57;49.12;100025.84;5072308;28;20570;-73
2023/04/22 00:10:59;;;;;;;9.23;4.85;;;;;;;19.56;48.99;100024.16;5072261;28;20044;-73
2023/04/22 00:13:28;;;;;;;8.32;5.10;;;;;;;19.54;48.90;100020.72;5072347;28;20048;-73
2023/04/22 00:15:56;;;;;;;7.97;5.15;;;;;;;19.54;49.08;100026.13;5072233;28;20056;-73
2023/04/22 00:18:24;;;;;;;9.38;5.60;;;;;;;19.53;48.98;100024.44;5072322;28;20044;-74
2023/04/22 00:20:54;;;;;;;9.07;5.25;;;;;;;19.51;49.15;100023.75;5072338;28;20127;-75
2023/04/22 00:23:22;;;;;;;8.35;5.30;;;;;;;19.50;49.07;100025.63;5072290;28;20044;-75
2023/04/22 00:25:51;;;;;;;8.52;5.32;;;;;;;19.50;49.36;100020.22;5072129;28;20090;-74
2023/04/22 00:28:19;;;;;;;8.20;5.20;;;;;;;19.49;49.14;100023.03;5071960;28;20070;-74
2023/04/22 00:30:47;;;;;;;8.73;5.32;;;;;;;19.47;49.63;100025.06;5071812;28;20052;-74
2023/04/22 00:33:15;;;;;;;8.15;5.07;;;;;;;19.48;49.30;100026.75;5071989;28;20071;-75
2023/04/22 00:35:46;;;;;;;9.82;5.43;;;;;;;19.44;49.53;100016.25;5072123;28;20130;-74
2023/04/22 00:38:15;;;;;;;7.80;5.00;;;;;;;19.43;49.19;100025.38;5071918;28;20102;-74
2023/04/22 00:40:43;;;;;;;9.13;5.40;;;;;;;19.43;49.44;100022.66;5071892;28;20049;-73
2023/04/22 00:43:13;;;;;;;8.68;5.10;;;;;;;19.43;49.27;100019.97;5071805;28;20185;-74
2023/04/22 00:45:43;;;;;;;8.05;5.55;;;;;;;19.41;49.48;100016.56;5072182;28;20044;-74
2023/04/22 00:48:12;;;;;;;8.25;5.45;;;;;;;19.42;49.78;100023.69;5072021;28;20453;-73
2023/04/22 00:50:41;;;;;;;8.05;5.18;;;;;;;19.41;49.43;100018.44;5071907;28;20088;-74
2023/04/22 00:53:09;;;;;;;8.20;5.18;;;;;;;19.41;49.40;100021.97;5071856;28;20041;-73
2023/04/22 00:55:38;;;;;;;8.68;5.28;;;;;;;19.38;49.48;100016.84;5071628;28;20076;-74
2023/04/22 00:58:07;;;;;;;8.48;5.22;;;;;;;19.38;49.26;100027.69;5071919;28;20088;-74
2023/04/22 01:00:36;;;;;;;8.80;5.68;;;;;;;19.37;49.45;100023.28;5071726;28;20046;-73
2023/04/22 01:03:06;;;;;;;8.77;5.45;;;;;;;19.38;49.32;100032.22;5070962;28;20044;-73
2023/04/22 01:05:35;;;;;;;8.73;5.20;;;;;;;19.35;49.34;100028.00;5071457;28;20489;-72
2023/04/22 01:08:03;;;;;;;8.25;4.80;;;;;;;19.35;49.41;100033.41;5071467;28;20075;-72
2023/04/22 01:10:31;;;;;;;7.90;4.95;;;;;;;19.34;49.36;100037.13;5071511;28;20044;-73
2023/04/22 01:13:06;;;;;;;7.97;4.88;;;;;;;19.30;49.80;100033.03;5071692;28;20049;-73
2023/04/22 01:15:34;;;;;;;8.15;5.20;;;;;;;19.32;49.50;100033.72;5071692;28;20382;-72
2023/04/22 01:18:03;;;;;;;8.23;5.25;;;;;;;19.32;49.61;100044.53;5071603;28;20045;-73
2023/04/22 01:20:31;;;;;;;8.50;5.65;;;;;;;19.32;49.59;100036.44;5071448;28;20048;-73
2023/04/22 01:23:03;;;;;;;7.50;4.85;;;;;;;19.30;49.53;100035.72;5071332;28;20436;-72
2023/04/22 01:25:33;;;;;;;8.80;5.50;;;;;;;19.29;49.57;100039.41;5071800;28;20075;-74
2023/04/22 01:28:02;;;;;;;8.38;5.15;;;;;;;19.28;49.52;100043.13;5071512;28;20047;-73
2023/04/22 01:30:30;;;;;;;6.88;4.95;;;;;;;19.28;49.82;100042.28;5071274;28;20048;-73
2023/04/22 01:32:59;;;;;;;6.63;4.78;;;;;;;19.28;49.39;100047.69;5071272;28;20521;-73
2023/04/22 01:35:29;;;;;;;8.50;4.85;;;;;;;19.24;49.43;100041.75;5071182;28;20468;-73
2023/04/22 01:37:57;;;;;;;9.30;5.28;;;;;;;19.26;49.33;100045.13;5071509;28;20049;-73
2023/04/22 01:40:27;;;;;;;8.88;5.22;;;;;;;19.25;49.45;100046.16;5071371;28;20128;-74
2023/04/22 01:42:57;;;;;;;9.32;5.30;;;;;;;19.25;49.50;100048.84;5071357;28;20055;-73
2023/04/22 01:45:25;;;;;;;8.77;5.38;;;;;;;19.23;49.51;100050.88;5071066;28;20135;-73
2023/04/22 01:47:54;;;;;;;7.68;5.10;;;;;;;19.23;49.44;100044.59;5071206;28;20045;-74
2023/04/22 01:50:23;;;;;;;7.50;4.95;;;;;;;19.21;49.48;100046.63;5071386;28;20140;-73
2023/04/22 01:52:51;;;;;;;7.93;4.95;;;;;;;19.17;49.68;100041.50;5071298;28;20525;-72
2023/04/22 01:55:19;;;;;;;6.57;4.90;;;;;;;19.19;49.79;100044.03;5071523;28;20060;-73
2023/04/22 01:57:48;;;;;;;6.20;4.63;;;;;;;19.16;49.75;100049.75;5071212;28;20044;-73
2023/04/22 02:00:18;;;;;;;8.48;5.30;;;;;;;19.18;49.69;100047.75;5071114;28;20060;-73
2023/04/22 02:02:46;;;;;;;7.88;4.82;;;;;;;19.16;49.36;100042.50;5071023;28;20638;-72
2023/04/22 02:05:15;;;;;;;8.70;5.18;;;;;;;19.17;49.79;100051.47;5071310;28;20131;-72
2023/04/22 02:07:43;;;;;;;6.97;4.75;;;;;;;19.14;49.74;100039.09;5071029;28;20178;-73
2023/04/22 02:10:12;;;;;;;7.60;4.70;;;;;;;19.14;49.91;100035.56;5071072;28;20048;-72
2023/04/22 02:12:40;;;;;;;7.28;5.13;;;;;;;19.11;49.92;100042.13;5070821;28;20044;-71
2023/04/22 02:15:10;;;;;;;7.78;4.95;;;;;;;19.10;49.58;100036.84;5074022;28;20057;-71
2023/04/22 02:17:42;;;;;;;7.18;4.90;;;;;;;19.10;49.54;100040.38;5064553;28;20118;-72
2023/04/22 02:20:12;;;;;;;7.88;5.43;;;;;;;19.10;49.66;100039.53;5054516;28;20095;-73
2023/04/22 02:22:43;;;;;;;7.90;5.03;;;;;;;19.09;49.45;100038.69;5054460;28;20575;-72
2023/04/22 02:25:12;;;;;;;8.10;5.35;;;;;;;19.09;49.36;100043.25;5068473;28;20511;-72
2023/04/22 02:27:41;;;;;;;8.32;5.20;;;;;;;19.05;49.63;100036.47;5074257;28;20493;-72
2023/04/22 02:30:09;;;;;;;7.32;4.78;;;;;;;19.07;49.46;100046.13;5074301;28;20063;-72
2023/04/22 02:32:40;;;;;;;9.23;5.00;;;;;;;19.04;49.76;100038.31;5074412;28;20540;-72
2023/04/22 02:35:10;;;;;;;8.50;5.00;;;;;;;19.04;49.57;100042.88;5074281;28;20048;-72
2023/04/22 02:37:38;;;;;;;7.00;5.18;;;;;;;19.04;49.69;100045.56;5074249;28;20079;-72
2023/04/22 02:40:07;;;;;;;7.05;5.15;;;;;;;19.02;49.77;100039.47;5074075;28;20128;-73
2023/04/22 02:42:36;;;;;;;7.35;5.00;;;;;;;19.02;49.72;100031.38;5074279;28;20075;-72
2023/04/22 02:45:05;;;;;;;7.40;5.20;;;;;;;19.02;49.92;100039.47;5074435;28;20135;-73
2023/04/22 02:47:33;;;;;;;7.75;5.13;;;;;;;18.99;49.72;100031.66;5076865;28;20075;-73
2023/04/22 02:50:03;;;;;;;7.28;4.95;;;;;;;18.97;49.46;100025.56;5078441;28;20045;-74
2023/04/22 02:52:32;;;;;;;8.52;5.13;;;;;;;18.99;49.66;100037.06;5075607;28;20083;-73
2023/04/22 02:55:01;;;;;;;8.57;5.10;;;;;;;18.96;49.60;100029.25;5074093;28;20454;-73
2023/04/22 02:57:29;;;;;;;9.48;5.25;;;;;;;18.97;49.67;100034.50;5073953;28;20055;-73
2023/04/22 02:59:57;;;;;;;8.50;5.28;;;;;;;18.96;49.76;100034.66;5073824;28;20051;-72
2023/04/22 03:02:25;;;;;;;7.40;5.00;;;;;;;18.95;49.45;100033.81;5073846;28;20051;-73
2023/04/22 03:04:54;;;;;;;7.53;4.93;;;;;;;18.94;49.64;100037.53;5073667;28;20516;-73
2023/04/22 03:07:23;;;;;;;7.53;4.95;;;;;;;18.94;49.34;100040.22;5073440;28;20052;-73
2023/04/22 03:09:52;;;;;;;6.70;4.88;;;;;;;18.94;49.33;100036.69;5073781;28;20071;-73
2023/04/22 03:12:20;;;;;;;7.47;5.00;;;;;;;18.93;49.46;100035.81;5073615;28;20072;-73
2023/04/22 03:14:48;;;;;;;7.82;5.07;;;;;;;18.92;49.46;100031.44;5073549;28;20131;-73
2023/04/22 03:17:16;;;;;;;7.07;4.93;;;;;;;18.90;49.89;100032.56;5073428;28;20045;-73
2023/04/22 03:19:45;;;;;;;6.45;4.63;;;;;;;18.91;49.74;100036.97;5073304;28;20102;-73
2023/04/22 03:22:13;;;;;;;7.82;5.03;;;;;;;18.90;49.47;100038.81;5073130;28;20090;-73
2023/04/22 03:24:42;;;;;;;7.57;5.20;;;;;;;18.88;49.49;100036.25;5073230;28;20044;-73
2023/04/22 03:27:11;;;;;;;9.43;5.10;;;;;;;18.88;49.73;100041.66;5072961;28;20102;-74
2023/04/22 03:29:39;;;;;;;8.88;5.13;;;;;;;18.88;49.59;100043.53;5073054;28;20056;-72
2023/04/22 03:32:08;;;;;;;8.02;5.32;;;;;;;18.87;49.42;100045.38;5073055;28;20477;-74
2023/04/22 03:34:36;;;;;;;8.27;5.03;;;;;;;18.85;49.71;100047.38;5072924;28;20143;-72
2023/04/22 03:37:04;;;;;;;8.52;5.22;;;;;;;18.85;49.40;100047.38;5073161;28;20044;-73
2023/04/22 03:39:33;;;;;;;7.30;5.20;;;;;;;18.84;49.56;100053.78;5073100;28;20048;-72
2023/04/22 03:42:02;;;;;;;8.70;5.10;;;;;;;18.82;49.70;100053.09;5072964;28;20052;-72
2023/04/22 03:44:32;;;;;;;7.65;5.22;;;;;;;18.83;49.90;100054.78;5072776;28;20052;-73
2023/04/22 03:47:00;;;;;;;8.80;5.32;;;;;;;18.81;49.70;100050.53;5072738;28;20044;-73
2023/04/22 03:49:29;;;;;;;8.10;5.22;;;;;;;18.81;49.39;100053.22;5072928;28;20102;-73
2023/04/22 03:52:00;;;;;;;7.80;5.18;;;;;;;18.80;49.66;100049.66;5072664;28;20745;-74
2023/04/22 03:54:28;;;;;;;8.05;5.28;;;;;;;18.79;49.34;100052.53;5072808;28;20052;-73
2023/04/22 03:56:56;;;;;;;6.50;4.85;;;;;;;18.75;49.66;100040.34;5072702;28;20055;-73
2023/04/22 03:59:26;;;;;;;8.05;5.53;;;;;;;18.77;49.25;100049.13;5072487;28;20056;-73
2023/04/22 04:01:54;;;;;;;6.72;4.75;;;;;;;18.77;49.76;100060.78;5072517;28;20041;-73
2023/04/22 04:04:23;;;;;;;8.38;5.05;;;;;;;18.76;49.67;100052.84;5072656;28;20079;-73
2023/04/22 04:06:52;;;;;;;7.28;5.05;;;;;;;18.74;49.45;100050.28;5072536;28;20051;-73
2023/04/22 04:09:20;;;;;;;8.07;4.90;;;;;;;18.70;49.48;100048.88;5072422;28;20041;-73
2023/04/22 04:11:48;;;;;;;7.32;5.05;;;;;;;18.74;49.29;100053.00;5072347;28;20048;-73
2023/04/22 04:14:16;;;;;;;7.68;5.10;;;;;;;18.72;49.60;100052.28;5072163;28;20049;-72
2023/04/22 04:16:46;;;;;;;7.38;4.85;;;;;;;18.72;49.50;100052.28;5072352;28;20127;-72
2023/04/22 04:19:14;;;;;;;7.85;5.25;;;;;;;18.71;49.47;100064.06;5072350;28;20044;-72
2023/04/22 04:21:42;;;;;;;8.02;5.07;;;;;;;18.71;49.42;100060.53;5072295;28;20090;-72
2023/04/22 04:24:11;;;;;;;6.72;4.80;;;;;;;18.68;49.44;100060.84;5072157;28;20449;-71
2023/04/22 04:26:39;;;;;;;7.07;4.88;;;;;;;18.70;49.46;100070.47;5072065;28;20451;-73
2023/04/22 04:29:07;;;;;;;7.43;5.40;;;;;;;18.68;49.66;100072.50;5071766;28;20386;-72
2023/04/22 04:31:35;;;;;;;9.48;5.55;;;;;;;18.69;49.33;100074.19;5072220;28;20063;-72
2023/04/22 04:34:06;;;;;;;9.23;5.38;;;;;;;18.67;49.30;100073.50;5072146;28;20041;-72
2023/04/22 04:36:34;;;;;;;8.10;4.88;;;;;;;18.65;49.55;100078.19;5071639;28;20106;-73
2023/04/22 04:39:03;;;;;;;8.27;5.18;;;;;;;18.68;49.44;100085.16;5071687;28;20054;-72
2023/04/22 04:41:32;;;;;;;8.18;5.43;;;;;;;18.65;49.71;100078.19;5071772;28;20481;-73
2023/04/22 04:44:00;;;;;;;6.57;4.57;;;;;;;18.64;49.78;100076.47;5072282;28;20044;-72
2023/04/22 04:46:29;;;;;;;6.68;4.90;;;;;;;18.66;49.24;100082.59;5071913;28;20040;-72
2023/04/22 04:48:57;;;;;;;8.50;5.22;;;;;;;18.66;49.51;100084.44;5065763;28;20059;-73
2023/04/22 04:51:27;;;;;;;7.82;5.18;;;;;;;18.65;49.46;100083.59;5071861;28;20119;-73
2023/04/22 04:53:55;;;;;;;8.77;5.78;;;;;;;18.65;49.36;100089.00;5071791;28;20045;-73
2023/04/22 04:56:23;;;;;;;7.68;5.13;;;;;;;18.64;49.29;100089.97;5071609;28;20087;-72
2023/04/22 04:58:51;;;;;;;6.72;4.63;;;;;;;18.64;49.77;100081.88;5071879;28;20071;-74
2023/04/22 05:01:19;;;;;;;6.90;4.90;;;;;;;18.64;49.88;100091.81;5071871;28;20053;-74
2023/04/22 05:03:47;;;;;;;8.30;5.30;;;;;;;18.64;49.44;100083.72;5071675;28;20041;-74
2023/04/22 05:06:16;;;;;;;7.53;5.03;;;;;;;18.63;49.38;100088.28;5071665;28;20456;-73
2023/04/22 05:08:45;;;;;;;8.25;5.28;;;;;;;18.62;49.60;100091.09;5071380;28;20131;-73
2023/04/22 05:11:13;;;;;;;8.88;5.65;;;;;;;18.60;49.69;100085.84;5071817;28;20052;-73
2023/04/22 05:13:41;;;;;;;7.90;5.13;;;;;;;18.62;49.56;100094.66;5071744;28;20090;-72
2023/04/22 05:16:09;;;;;;;6.97;5.13;;;;;;;18.62;49.61;100094.66;5071513;28;20572;-72
2023/04/22 05:18:39;;;;;;;8.05;5.20;;;;;;;18.60;49.91;100092.09;5071572;28;20067;-72
2023/04/22 05:21:07;;;;;;;7.05;5.10;;;;;;;18.62;49.84;100100.03;5071255;28;20517;-72
2023/04/22 05:23:35;;;;;;;7.70;4.80;;;;;;;18.61;50.01;100092.94;5071305;28;20087;-74
2023/04/22 05:26:05;;;;;;;8.35;5.10;;;;;;;18.62;49.63;100099.19;5060480;28;20053;-73
2023/04/22 05:28:33;;;;;;;7.50;5.05;;;;;;;18.61;49.71;100087.53;5051161;28;20049;-73
2023/04/22 05:31:01;;;;;;;6.78;4.97;;;;;;;18.61;49.53;100103.75;5051126;28;20140;-74
2023/04/22 05:33:29;;;;;;;8.00;5.07;;;;;;;18.59;49.95;100101.19;5051318;28;20045;-72
2023/04/22 05:35:58;;;;;;;6.85;5.00;;;;;;;18.59;49.63;100101.19;5051337;28;20099;-73
2023/04/22 05:38:26;;;;;;;8.25;5.55;;;;;;;18.59;49.75;100094.94;5051434;28;20409;-72
2023/04/22 05:40:54;;;;;;;8.18;5.10;;;;;;;18.59;49.78;100098.50;5051311;28;20045;-72
2023/04/22 05:43:24;;;;;;;8.02;4.93;;;;;;;18.59;49.74;100103.91;5051237;28;20049;-72
2023/04/22 05:45:52;;;;;;;7.15;4.97;;;;;;;18.59;49.62;100103.06;5051270;28;20075;-72
2023/04/22 05:48:20;;;;;;;7.82;4.70;;;;;;;18.59;50.09;100101.19;5051509;28;20057;-72
2023/04/22 05:50:51;;;;;;;7.95;5.45;;;;;;;18.60;50.28;100107.44;5055088;28;20140;-72
2023/04/22 05:53:25;;;;;;;7.70;5.00;;;;;;;18.59;49.64;100111.16;5055129;28;20084;-72
2023/04/22 05:55:53;;;;;;;6.93;4.53;;;;;;;18.58;49.88;100112.16;5054934;28;20543;-72
2023/04/22 05:58:21;;;;;;;7.28;4.97;;;;;;;18.60;49.74;100107.44;5054787;28;20485;-72
2023/04/22 06:00:51;;;;;;;6.32;4.85;;;;;;;18.60;49.72;100107.44;5054718;28;20045;-72
2023/04/22 06:03:19;;;;;;;7.57;4.93;;;;;;;18.60;49.80;100112.84;5054944;28;20052;-72
2023/04/22 06:05:48;;;;;;;7.40;4.78;;;;;;;18.60;50.06;100113.72;5054933;28;20051;-72
2023/04/22 06:08:16;;;;;;;7.60;4.60;;;;;;;18.60;49.97;100115.56;5054640;28;20106;-72
2023/04/22 06:10:44;;;;;;;8.05;5.00;;;;;;;18.60;50.36;100110.16;5054455;28;20053;-73
2023/04/22 06:13:12;;;;;;;6.60;4.88;;;;;;;18.62;50.32;100113.56;5054429;28;20045;-73
2023/04/22 06:15:41;;;;;;;7.07;4.75;;;;;;;18.63;50.17;100119.84;5054522;28;20060;-73
2023/04/22 06:18:11;;;;;;;7.75;5.10;;;;;;;18.61;50.23;100117.25;5054417;28;20080;-73
2023/04/22 06:20:39;;;;;;;7.63;5.22;;;;;;;18.63;50.21;100123.38;5054568;28;20060;-73
2023/04/22 06:23:08;;;;;;;7.13;4.47;;;;;;;18.62;50.36;100120.81;5054789;28;20045;-73
2023/04/22 06:25:36;;;;;;;7.88;4.93;;;;;;;18.64;50.52;100125.09;5054316;28;20049;-73
2023/04/22 06:28:04;;;;;;;7.50;4.78;;;;;;;18.64;50.43;100125.09;5054026;28;20073;-72
2023/04/22 06:30:32;;;;;;;7.57;4.90;;;;;;;18.63;50.21;100123.38;5054189;28;20060;-73
2023/04/22 06:33:00;;;;;;;8.13;5.07;;;;;;;18.64;50.41;100122.38;5054220;28;20053;-73
2023/04/22 06:35:30;;;;;;;7.70;4.95;;;;;;;18.64;50.21;100116.97;5054247;28;20045;-73
2023/04/22 06:37:58;;;;;;;7.28;4.82;;;;;;;18.66;50.27;100123.13;5054208;28;20071;-73
2023/04/22 06:40:26;;;;;;;6.70;4.90;;;;;;;18.67;50.71;100124.81;5054048;28;20136;-73
2023/04/22 06:42:55;;;;;;;7.18;4.82;;;;;;;18.68;50.50;100121.13;5054125;28;20048;-72
2023/04/22 06:45:23;;;;;;;7.13;4.50;;;;;;;18.68;50.77;100120.25;5054109;28;20468;-73
2023/04/22 06:47:52;;;;;;;7.35;4.57;;;;;;;18.69;50.62;100112.00;5054025;28;20041;-74
2023/04/22 06:50:21;;;;;;;6.55;4.50;;;;;;;18.69;50.78;100114.72;5053666;28;20549;-74
2023/04/22 06:52:50;;;;;;;6.68;4.60;;;;;;;18.67;50.78;100116.72;5053731;28;20102;-73
2023/04/22 06:55:18;;;;;;;7.47;4.90;;;;;;;18.70;50.83;100107.44;5053650;28;20068;-73
2023/04/22 06:57:46;;;;;;;6.28;4.75;;;;;;;18.70;51.07;100111.00;5053799;28;20080;-73
2023/04/22 07:00:15;;;;;;;7.05;4.93;;;;;;;18.70;50.51;100108.31;5052778;28;20140;-74
2023/04/22 07:02:43;;;;;;;7.70;4.90;;;;;;;18.72;50.73;100116.25;5053425;28;20044;-72
2023/04/22 07:05:11;;;;;;;6.60;4.50;;;;;;;18.73;51.06;100108.03;5053457;28;20052;-74
2023/04/22 07:07:40;;;;;;;6.40;4.38;;;;;;;18.71;50.84;100104.59;5053394;28;20133;-72
2023/04/22 07:10:10;;;;;;;7.22;4.70;;;;;;;18.74;50.72;100114.28;5054967;28;20428;-71
2023/04/22 07:12:38;;;;;;;6.70;4.82;;;;;;;18.75;50.87;100115.97;5054565;28;20604;-73
2023/04/22 07:15:08;;;;;;;6.80;4.80;;;;;;;18.75;51.03;100116.81;5053648;28;20045;-79
2023/04/22 07:17:36;;;;;;;8.55;5.40;;;;;;;18.76;50.96;100118.53;5053835;28;20162;-75
2023/04/22 07:20:05;;;;;;;8.23;5.50;;;;;;;18.76;50.56;100118.53;5053252;28;20056;-73
2023/04/22 07:22:33;;;;;;;7.55;5.53;;;;;;;18.78;50.63;100121.94;5053195;28;20064;-73
2023/04/22 07:25:02;;;;;;;7.72;4.68;;;;;;;18.81;50.64;100127.03;5053342;28;20453;-72
2023/04/22 07:27:31;;;;;;;6.97;4.68;;;;;;;18.81;50.37;100123.47;5053310;28;20041;-73
2023/04/22 07:30:00;;;;;;;6.80;5.20;;;;;;;18.83;50.66;100121.50;5052884;28;20060;-74
2023/04/22 07:32:29;;;;;;;8.02;4.65;;;;;;;18.84;50.64;100126.75;5053127;28;20103;-74
2023/04/22 07:34:57;;;;;;;8.05;5.35;;;;;;;18.85;50.83;100124.91;5053013;28;20426;-76
2023/04/22 07:37:25;;;;;;;9.05;4.85;;;;;;;18.85;50.83;100128.44;5051924;28;20049;-74
2023/04/22 07:39:53;;;;;;;7.70;4.90;;;;;;;18.87;51.07;100125.59;5053044;28;20053;-75
2023/04/22 07:42:21;;;;;;;7.60;4.97;;;;;;;18.88;50.96;100125.44;5052919;28;20045;-73
2023/04/22 07:44:51;;;;;;;8.68;5.50;;;;;;;18.90;51.07;100124.44;5052680;28;20041;-74
2023/04/22 07:47:19;;;;;;;9.60;4.80;;;;;;;18.90;51.18;100122.59;5052838;28;20044;-74
2023/04/22 07:49:48;;;;;;;7.95;4.82;;;;;;;18.89;51.30;100120.88;5052752;28;20520;-75
2023/04/22 07:52:16;;;;;;;11.25;5.03;;;;;;;18.93;51.63;100124.16;5053061;28;20136;-75
2023/04/22 07:54:45;;;;;;;7.63;4.90;;;;;;;18.93;51.54;100119.59;5052693;28;20045;-74
2023/04/22 07:57:13;;;;;;;8.45;4.40;;;;;;;18.95;51.55;100123.00;5052632;28;20056;-75
2023/04/22 07:59:42;;;;;;;7.72;4.70;;;;;;;18.96;51.74;100123.84;5052779;28;20060;-76
2023/04/22 08:02:11;;;;;;;9.10;5.28;;;;;;;18.98;51.88;100113.75;5052609;28;20409;-74
2023/04/22 08:04:39;;;;;;;9.18;5.22;;;;;;;18.99;52.20;100120.84;5052396;28;20504;-79
2023/04/22 08:07:08;;;;;;;9.90;5.20;;;;;;;19.00;52.11;100119.84;5053379;28;20049;-76
2023/04/22 08:09:56;;;;;;;10.05;5.05;;;;;;;19.01;52.07;100122.41;5054749;28;20135;-75
2023/04/22 08:12:24;;;;;;;7.90;4.68;;;;;;;19.06;52.22;100113.84;5072328;28;20094;-76
2023/04/22 08:14:53;;;;;;;7.43;4.75;;;;;;;19.08;52.10;100125.34;5072425;28;20054;-72
2023/04/22 08:17:22;;;;;;;7.45;4.80;;;;;;;19.10;51.51;100120.66;5072700;28;20049;-77
2023/04/22 08:19:50;;;;;;;8.27;4.53;;;;;;;19.09;51.70;100117.09;5072241;28;20044;-78
2023/04/22 08:22:19;;;;;;;10.02;4.85;;;;;;;19.09;51.62;100119.78;5072843;28;20064;-78
2023/04/22 08:24:47;;;;;;;10.23;4.82;;;;;;;19.08;51.42;100117.25;5073108;28;20048;-77
2023/04/22 08:27:15;;;;;;;9.32;4.72;;;;;;;19.09;51.08;100121.66;5072366;28;20048;-77
2023/04/22 08:29:43;;;;;;;7.13;4.70;;;;;;;19.09;51.06;100118.94;5072412;28;20062;-77
2023/04/22 08:32:11;;;;;;;8.63;4.88;;;;;;;19.07;51.53;100121.81;5072553;28;20143;-76
2023/04/22 08:34:41;;;;;;;7.93;4.70;;;;;;;19.08;50.60;100125.34;5072632;28;20048;-77
2023/04/22 08:37:09;;;;;;;9.38;4.57;;;;;;;19.07;50.66;100123.66;5072415;28;20206;-76
2023/04/22 08:39:37;;;;;;;9.43;5.07;;;;;;;19.09;50.42;100124.34;5072239;28;20041;-76
2023/04/22 08:42:05;;;;;;;8.60;4.53;;;;;;;19.08;50.77;100126.19;5072337;28;20504;-75
2023/04/22 08:44:35;;;;;;;8.07;4.97;;;;;;;19.08;50.79;100122.66;5072474;28;20044;-76
2023/04/22 08:47:03;;;;;;;8.82;4.85;;;;;;;19.08;50.58;100120.78;5072345;28;20489;-75
2023/04/22 08:49:34;;;;;;;8.00;4.93;;;;;;;19.10;50.69;100120.66;5072257;28;20044;-76
2023/04/22 08:52:04;;;;;;;8.90;4.22;;;;;;;19.10;50.33;100115.25;5072065;28;20485;-75
2023/04/22 08:54:33;;;;;;;10.25;4.25;;;;;;;19.11;50.03;100116.97;5071020;28;20497;-74
2023/04/22 08:57:02;;;;;;;8.10;4.60;;;;;;;19.09;50.37;100113.53;5072398;28;20090;-77
2023/04/22 08:59:31;;;;;;;9.20;4.55;;;;;;;19.11;50.03;100114.25;5072105;28;20048;-76
2023/04/22 09:02:00;;;;;;;8.95;4.47;;;;;;;19.11;50.36;100106.16;5072219;28;20497;-76
2023/04/22 09:04:29;;;;;;;7.38;4.47;;;;;;;19.13;50.54;100114.97;5072029;28;20083;-76
2023/04/22 09:06:58;;;;;;;6.97;4.22;;;;;;;19.13;50.52;100110.41;5072134;28;20059;-77
2023/04/22 09:09:32;;;;;;;9.13;4.40;;;;;;;19.15;50.56;100112.94;5071922;28;20298;-76
2023/04/22 09:12:01;;;;;;;6.63;4.32;;;;;;;19.14;50.64;100105.84;5072146;28;20055;-77
2023/04/22 09:14:30;;;;;;;6.85;4.28;;;;;;;19.17;50.22;100110.94;5072198;28;20044;-77
2023/04/22 09:16:58;;;;;;;9.32;4.65;;;;;;;19.18;50.53;100109.94;5072126;28;20053;-75
2023/04/22 09:19:26;;;;;;;8.68;4.70;;;;;;;19.21;50.61;100112.34;5071716;28;20049;-77
2023/04/22 09:21:57;;;;;;;7.70;4.80;;;;;;;19.20;50.24;100110.63;5071581;28;20052;-75
2023/04/22 09:24:25;;;;;;;7.63;4.60;;;;;;;19.21;50.33;100112.34;5074208;28;20044;-73
2023/04/22 09:26:56;;;;;;;8.43;4.63;;;;;;;19.23;49.82;100113.03;5075783;28;20047;-77
2023/04/22 09:29:30;;;;;;;7.63;4.32;;;;;;;19.23;50.07;100110.34;5075561;28;20076;-74
2023/04/22 09:31:58;;;;;;;7.93;4.47;;;;;;;19.25;50.01;100110.19;5075730;28;20139;-76
2023/04/22 09:34:27;;;;;;;7.57;3.97;;;;;;;19.26;50.03;100112.75;5075744;28;20276;-77
2023/04/22 09:36:55;;;;;;;7.32;4.28;;;;;;;19.27;50.12;100109.03;5075793;28;20056;-75
2023/04/22 09:39:23;;;;;;;6.53;4.10;;;;;;;19.29;50.05;100109.72;5075887;28;20047;-76
2023/04/22 09:41:56;;;;;;;7.05;3.90;;;;;;;19.29;49.81;100104.31;5075442;28;20059;-76
2023/04/22 09:44:27;;;;;;;6.38;3.90;;;;;;;19.31;49.96;100101.47;5075474;28;20048;-76
2023/04/22 09:46:56;;;;;;;6.60;4.00;;;;;;;19.32;49.73;100098.63;5075438;28;20048;-76
2023/04/22 09:49:26;;;;;;;9.45;3.95;;;;;;;19.35;49.89;100092.03;5075654;28;20072;-77
2023/04/22 09:51:57;;;;;;;7.32;4.15;;;;;;;19.36;49.89;100093.75;5075389;28;20052;-76
2023/04/22 09:54:25;;;;;;;7.13;4.22;;;;;;;19.38;49.88;100087.16;5075214;28;20164;-76
2023/04/22 09:56:53;;;;;;;6.47;4.15;;;;;;;19.38;49.80;100087.16;5075090;28;20418;-74
2023/04/22 09:59:24;;;;;;;6.90;4.40;;;;;;;19.40;50.00;100082.50;5075151;28;20066;-76
2023/04/22 10:01:55;;;;;;;8.13;4.20;;;;;;;19.43;50.08;100079.47;5075185;28;20094;-75
2023/04/22 10:04:24;;;;;;;6.97;4.40;;;;;;;19.44;49.97;100070.34;5075056;28;20480;-75
2023/04/22 10:06:53;;;;;;;7.07;4.10;;;;;;;19.49;49.94;100077.13;5075149;28;20229;-75
2023/04/22 10:09:24;;;;;;;7.13;4.18;;;;;;;19.48;50.32;100064.63;5074900;28;20144;-76
2023/04/22 10:11:54;;;;;;;8.38;3.92;;;;;;;19.52;50.30;100071.44;5074586;28;20049;-76
2023/04/22 10:14:24;;;;;;;6.20;4.18;;;;;;;19.55;50.01;100066.56;5074884;28;20527;-76
2023/04/22 10:16:56;;;;;;;7.55;4.15;;;;;;;19.59;50.08;100067.13;5074998;28;20075;-75
2023/04/22 10:19:26;;;;;;;8.60;4.13;;;;;;;19.61;50.54;100066.00;5069383;28;20049;-75
2023/04/22 10:21:58;;;;;;;6.03;4.03;;;;;;;19.65;50.39;100056.53;5057554;28;20128;-73
2023/04/22 10:24:28;;;;;;;7.40;4.30;;;;;;;19.66;50.70;100057.38;5074319;28;20057;-75
2023/04/22 10:26:58;;;;;;;7.72;4.38;;;;;;;19.72;50.95;100062.19;5074660;28;20106;-72
2023/04/22 10:29:37;;;;;;;6.57;3.97;;;;;;;19.75;50.71;100061.88;5074222;28;20111;-78
2023/04/22 10:32:25;;;;;;;6.28;3.75;;;;;;;19.78;50.72;100049.88;5074297;28;20465;-67
2023/04/22 10:35:13;;;;;;;7.25;4.07;;;;;;;19.84;51.08;100060.94;5073914;28;20054;-68
2023/04/22 10:37:44;;;;;;;7.07;3.83;;;;;;;19.87;50.94;100054.34;5074381;28;20120;-74
2023/04/22 10:40:16;;;;;;;5.88;3.72;;;;;;;19.92;50.81;100047.47;5072748;28;20052;-73
2023/04/22 10:42:49;;;;;;;7.10;4.03;;;;;;;19.94;51.13;100045.44;5054199;28;20153;-73
2023/04/22 10:45:23;;;;;;;5.93;4.10;;;;;;;20.00;50.86;100049.41;5053869;28;20413;-73
2023/04/22 10:47:52;;;;;;;8.90;4.10;;;;;;;20.05;51.07;100040.78;5052947;28;20084;-65
2023/04/22 10:50:24;;;;;;;6.18;3.97;;;;;;;20.08;51.28;100046.75;5053791;28;20405;-68
2023/04/22 10:52:55;;;;;;;5.75;3.75;;;;;;;20.13;51.33;100038.16;5053922;28;20475;-73
2023/04/22 10:55:24;;;;;;;6.82;3.72;;;;;;;20.17;51.18;100036.81;5053823;28;20052;-72
2023/04/22 10:57:53;;;;;;;6.22;4.07;;;;;;;20.21;51.18;100032.78;5053609;28;20041;-72
2023/04/22 11:00:27;;;;;;;7.75;3.65;;;;;;;20.26;51.00;100036.69;5054020;28;20128;-72
2023/04/22 11:03:09;;;;;;;;;;;;;;;20.30;50.65;100031.84;5053982;28;20045;-71
2023/04/22 11:05:38;;;;;;;7.30;3.78;;;;;;;20.34;50.69;100025.06;5053685;28;19975;-78
2023/04/22 11:08:13;;;;;;;6.30;3.95;;;;;;;20.40;50.72;100034.44;5053767;28;20128;-74
2023/04/22 11:10:44;;;;;;;9.05;3.95;;;;;;;20.45;50.49;100032.94;5053510;28;20482;-74
2023/04/22 11:13:14;;;;;;;6.28;3.80;;;;;;;20.52;50.61;100025.03;5053753;28;20045;-75
2023/04/22 11:15:46;;;;;;;9.95;4.00;;;;;;;20.57;50.77;100034.41;5053649;28;20145;-75
2023/04/22 11:18:18;;;;;;;7.37;4.10;;;;;;;20.62;50.54;100028.47;5053729;28;20045;-75
2023/04/22 11:20:48;;;;;;;6.25;3.60;;;;;;;20.67;50.63;100025.28;5053284;28;20482;-75
2023/04/22 11:23:24;;;;;;;6.15;3.78;;;;;;;20.70;50.71;100025.81;5053497;28;20045;-75
2023/04/22 11:25:57;;;;;;;6.55;3.53;;;;;;;20.74;50.67;100026.31;5053513;28;20087;-75
2023/04/22 11:28:26;;;;;;;6.43;3.72;;;;;;;20.79;50.38;100023.97;5053627;28;20049;-70
2023/04/22 11:31:04;;;;;;;6.53;3.80;;;;;;;20.84;50.39;100024.31;5054783;28;20080;-76
2023/04/22 11:33:34;;;;;;;6.20;3.45;;;;;;;20.86;50.57;100020.47;5053234;28;20107;-74